createdAt,value
2023-05-03T00:01:24.947Z,6.40
2023-05-03T00:04:26.730Z,6.40
2023-05-03T00:07:28.473Z,6.40
2023-05-03T00:10:30.223Z,6.30
2023-05-03T00:13:32.107Z,6.30
2023-05-03T00:16:33.847Z,6.20
2023-05-03T00:19:36.990Z,6.20
2023-05-03T00:27:01.714Z,6.10
2023-05-03T00:30:04.009Z,6.00
2023-05-03T00:33:06.477Z,5.90
2023-05-03T00:36:13.805Z,5.80
2023-05-03T00:39:15.603Z,5.80
2023-05-03T00:42:17.333Z,5.70
2023-05-03T00:45:19.066Z,5.70
2023-05-03T00:48:20.852Z,5.60
2023-05-03T00:51:23.452Z,5.60
2023-05-03T00:54:28.195Z,5.70
2023-05-03T00:57:30.448Z,5.60
2023-05-03T01:00:32.735Z,5.60
2023-05-03T01:03:37.721Z,5.60
2023-05-03T01:07:02.397Z,5.50
2023-05-03T01:10:19.303Z,5.50
2023-05-03T01:13:35.583Z,5.50
2023-05-03T01:17:13.938Z,5.50
2023-05-03T01:20:22.729Z,5.50
2023-05-03T01:23:46.633Z,5.50
2023-05-03T01:26:48.629Z,5.40
2023-05-03T01:29:50.280Z,5.40
2023-05-03T01:33:04.712Z,5.30
2023-05-03T01:36:20.868Z,5.20
2023-05-03T01:39:26.649Z,5.20
2023-05-03T01:42:29.737Z,5.20
2023-05-03T01:45:31.548Z,5.10
2023-05-03T01:48:33.230Z,5.10
2023-05-03T01:51:34.954Z,5.10
2023-05-03T01:54:36.628Z,5.10
2023-05-03T01:57:38.332Z,5.00
2023-05-03T02:00:40.010Z,5.00
2023-05-03T02:03:41.699Z,5.00
2023-05-03T02:06:43.440Z,4.90
2023-05-03T02:09:45.241Z,4.80
2023-05-03T02:12:46.957Z,4.80
2023-05-03T02:15:50.903Z,4.80
2023-05-03T02:18:53.884Z,4.80
2023-05-03T02:21:57.192Z,4.80
2023-05-03T02:24:59.109Z,4.70
2023-05-03T02:28:01.139Z,4.60
2023-05-03T02:31:02.930Z,4.60
2023-05-03T02:34:04.714Z,4.60
2023-05-03T02:37:06.411Z,4.60
2023-05-03T02:40:09.678Z,4.60
2023-05-03T02:43:11.511Z,4.50
2023-05-03T02:46:13.260Z,4.50
2023-05-03T02:49:15.043Z,4.50
2023-05-03T02:52:16.702Z,4.40
2023-05-03T02:55:18.569Z,4.40
2023-05-03T02:58:20.366Z,4.40
2023-05-03T03:01:22.397Z,4.40
2023-05-03T03:04:25.067Z,4.40
2023-05-03T03:07:27.012Z,4.40
2023-05-03T03:10:28.679Z,4.30
2023-05-03T03:13:30.582Z,4.30
2023-05-03T03:16:32.391Z,4.30
2023-05-03T03:19:34.192Z,4.30
2023-05-03T03:22:36.179Z,4.20
2023-05-03T03:25:37.883Z,4.20
2023-05-03T03:28:39.613Z,4.10
2023-05-03T03:31:41.460Z,4.10
2023-05-03T03:34:43.205Z,4.10
2023-05-03T03:37:44.942Z,4.00
2023-05-03T03:40:46.693Z,4.00
2023-05-03T03:43:48.409Z,4.00
2023-05-03T03:46:50.157Z,4.00
2023-05-03T03:49:51.907Z,4.10
2023-05-03T03:52:53.604Z,4.10
2023-05-03T03:55:55.321Z,4.00
2023-05-03T03:58:56.990Z,4.00
2023-05-03T04:01:58.777Z,4.00
2023-05-03T04:05:00.665Z,4.10
2023-05-03T04:08:02.435Z,4.10
2023-05-03T04:11:04.425Z,4.10
2023-05-03T04:14:06.060Z,4.10
2023-05-03T04:17:07.778Z,4.10
2023-05-03T04:20:13.772Z,4.10
2023-05-03T04:23:15.665Z,4.00
2023-05-03T04:26:27.821Z,4.00
2023-05-03T04:29:32.739Z,4.10
2023-05-03T04:32:37.713Z,4.00
2023-05-03T04:35:40.344Z,4.00
2023-05-03T04:38:43.239Z,4.00
2023-05-03T04:41:45.012Z,4.10
2023-05-03T04:44:46.881Z,4.10
2023-05-03T04:47:48.618Z,4.10
2023-05-03T04:50:52.045Z,4.20
2023-05-03T04:53:53.883Z,4.30
2023-05-03T04:56:55.641Z,4.30
2023-05-03T04:59:57.401Z,4.30
2023-05-03T05:02:59.152Z,4.30
2023-05-03T05:06:01.060Z,4.40
2023-05-03T05:09:02.877Z,4.50
2023-05-03T05:12:04.963Z,4.60
2023-05-03T05:15:07.261Z,4.60
2023-05-03T05:18:09.302Z,4.70
2023-05-03T05:21:11.621Z,4.80
2023-05-03T05:24:13.602Z,4.90
2023-05-03T05:27:15.910Z,5.00
2023-05-03T05:30:17.679Z,5.10
2023-05-03T05:33:19.594Z,5.30
2023-05-03T05:36:21.502Z,5.60
2023-05-03T05:39:23.510Z,6.30
2023-05-03T05:42:25.527Z,7.60
2023-05-03T05:45:27.311Z,9.00
2023-05-03T05:48:29.002Z,10.50
2023-05-03T05:51:31.751Z,11.90
2023-05-03T05:54:33.475Z,13.00
2023-05-03T05:57:35.220Z,14.00
2023-05-03T06:00:37.024Z,14.50
2023-05-03T06:03:38.741Z,14.90
2023-05-03T06:06:40.625Z,15.30
2023-05-03T06:09:43.072Z,15.60
2023-05-03T06:12:44.840Z,16.30
2023-05-03T06:15:46.594Z,16.50
2023-05-03T06:18:48.292Z,16.30
2023-05-03T06:21:50.066Z,16.30
2023-05-03T06:24:51.827Z,16.10
2023-05-03T06:32:15.914Z,14.70
2023-05-03T06:35:19.691Z,14.00
2023-05-03T06:38:21.541Z,13.60
2023-05-03T06:41:23.229Z,13.30
2023-05-03T06:44:24.973Z,13.30
2023-05-03T06:47:26.751Z,13.30
2023-05-03T06:50:28.531Z,13.30
2023-05-03T06:53:30.324Z,13.10
2023-05-03T06:56:32.456Z,13.10
2023-05-03T06:59:34.193Z,13.10
2023-05-03T07:02:36.023Z,12.80
2023-05-03T07:05:37.820Z,13.80
2023-05-03T07:08:39.521Z,15.10
2023-05-03T07:11:47.309Z,15.60
2023-05-03T07:14:49.095Z,16.40
2023-05-03T07:17:50.846Z,17.60
2023-05-03T07:20:52.868Z,17.70
2023-05-03T07:23:54.560Z,17.90
2023-05-03T07:26:56.949Z,18.00
2023-05-03T07:29:58.775Z,18.00
2023-05-03T07:33:00.802Z,17.90
2023-05-03T07:36:03.146Z,17.50
2023-05-03T07:39:05.032Z,16.90
2023-05-03T07:42:07.593Z,16.30
2023-05-03T07:45:09.914Z,15.30
2023-05-03T07:48:11.786Z,14.80
2023-05-03T07:51:13.480Z,14.70
2023-05-03T07:55:03.297Z,14.90
2023-05-03T07:58:05.343Z,15.30
2023-05-03T08:01:07.724Z,15.90
2023-05-03T08:04:09.827Z,16.10
2023-05-03T08:07:11.790Z,16.20
2023-05-03T08:10:13.507Z,15.70
2023-05-03T08:14:01.721Z,15.80
2023-05-03T08:17:04.856Z,16.20
2023-05-03T08:20:16.652Z,16.60
2023-05-03T08:23:19.144Z,16.90
2023-05-03T08:26:22.150Z,17.00
2023-05-03T08:29:25.665Z,17.40
2023-05-03T08:32:30.457Z,17.20
2023-05-03T08:35:32.193Z,17.10
2023-05-03T08:38:34.975Z,17.10
2023-05-03T08:41:37.376Z,17.20
2023-05-03T08:44:50.550Z,17.50
2023-05-03T08:47:55.651Z,17.80
2023-05-03T08:50:59.670Z,17.70
2023-05-03T08:54:01.330Z,18.00
2023-05-03T08:57:16.791Z,18.20
2023-05-03T09:00:19.291Z,18.50
2023-05-03T09:03:22.179Z,18.60
2023-05-03T09:06:28.470Z,19.00
2023-05-03T09:09:33.362Z,18.90
2023-05-03T09:12:41.213Z,18.00
2023-05-03T09:15:45.274Z,17.70
2023-05-03T09:18:57.493Z,18.10
2023-05-03T09:22:06.915Z,18.10
2023-05-03T09:25:09.331Z,18.10
2023-05-03T09:28:11.390Z,17.90
2023-05-03T09:31:13.500Z,17.30
2023-05-03T09:34:24.657Z,17.30
2023-05-03T09:37:38.722Z,16.60
2023-05-03T09:40:48.258Z,16.90
2023-05-03T09:43:52.216Z,17.20
2023-05-03T09:47:07.336Z,16.90
2023-05-03T09:50:09.291Z,16.30
2023-05-03T09:53:10.976Z,16.80
2023-05-03T09:56:13.007Z,16.70
2023-05-03T09:59:14.904Z,17.00
2023-05-03T10:02:17.588Z,17.30
2023-05-03T10:05:21.388Z,17.80
2023-05-03T10:08:45.247Z,17.40
2023-05-03T10:11:51.657Z,16.90
2023-05-03T10:14:55.030Z,16.70
2023-05-03T10:18:01.111Z,16.50
2023-05-03T10:21:14.507Z,16.40
2023-05-03T10:24:17.224Z,16.30
2023-05-03T10:27:18.912Z,16.10
2023-05-03T10:30:37.919Z,16.00
2023-05-03T10:33:39.592Z,16.00
2023-05-03T10:36:49.537Z,15.70
2023-05-03T10:39:53.212Z,15.90
2023-05-03T10:42:56.368Z,15.60
2023-05-03T10:46:36.858Z,15.90
2023-05-03T10:49:38.578Z,15.80
2023-05-03T10:52:40.550Z,15.60
2023-05-03T10:56:18.409Z,15.30
2023-05-03T10:59:21.947Z,15.30
2023-05-03T11:02:30.464Z,15.50
2023-05-03T11:05:33.689Z,15.40
2023-05-03T11:08:38.562Z,15.20
2023-05-03T11:11:41.823Z,15.10
2023-05-03T11:14:43.536Z,15.10
2023-05-03T11:17:45.265Z,15.10
2023-05-03T11:20:47.054Z,15.00
2023-05-03T11:23:48.991Z,14.80
2023-05-03T11:26:50.925Z,14.50
2023-05-03T11:29:53.132Z,14.20
2023-05-03T11:33:17.462Z,14.00
2023-05-03T11:36:19.154Z,14.00
2023-05-03T11:39:21.481Z,14.20
2023-05-03T11:42:25.894Z,14.20
2023-05-03T11:45:44.015Z,14.30
2023-05-03T11:48:46.041Z,14.30
2023-05-03T11:52:05.934Z,14.40
2023-05-03T11:55:09.150Z,14.40
2023-05-03T11:58:19.801Z,14.40
2023-05-03T12:01:23.883Z,14.20
2023-05-03T12:04:27.097Z,14.20
2023-05-03T12:07:29.504Z,13.90
2023-05-03T12:10:33.346Z,13.80
2023-05-03T12:13:38.711Z,13.90
2023-05-03T12:16:51.289Z,13.90
2023-05-03T12:20:12.748Z,13.90
2023-05-03T12:23:40.100Z,13.90
2023-05-03T12:26:42.425Z,13.90
2023-05-03T12:29:46.913Z,13.90
2023-05-03T12:32:51.107Z,13.90
2023-05-03T12:35:54.242Z,14.10
2023-05-03T12:38:56.907Z,14.10
2023-05-03T12:45:05.160Z,14.10
2023-05-03T12:48:07.136Z,14.30
2023-05-03T12:51:19.487Z,14.30
2023-05-03T12:54:26.765Z,14.30
2023-05-03T12:57:30.660Z,14.40
2023-05-03T13:00:36.622Z,14.40
2023-05-03T13:03:43.653Z,14.50
2023-05-03T13:06:47.058Z,14.50
2023-05-03T13:12:56.982Z,14.50
2023-05-03T13:16:00.094Z,14.50
2023-05-03T13:19:01.859Z,14.50
2023-05-03T13:22:03.558Z,14.50
2023-05-03T13:25:54.155Z,14.40
2023-05-03T13:28:56.112Z,14.30
2023-05-03T13:31:57.949Z,14.30
2023-05-03T13:34:59.720Z,14.40
2023-05-03T13:38:01.528Z,14.40
2023-05-03T13:41:08.570Z,14.30
2023-05-03T13:44:11.453Z,14.30
2023-05-03T13:47:13.504Z,14.40
2023-05-03T13:50:15.809Z,14.40
2023-05-03T13:53:17.742Z,14.30
2023-05-03T13:56:19.446Z,14.30
2023-05-03T13:59:21.276Z,14.20
2023-05-03T14:02:22.987Z,14.20
2023-05-03T14:05:24.672Z,14.10
2023-05-03T14:08:26.451Z,13.90
2023-05-03T14:11:31.252Z,13.90
2023-05-03T14:14:33.881Z,14.00
2023-05-03T14:17:35.631Z,14.00
2023-05-03T14:20:37.874Z,14.10
2023-05-03T14:23:40.412Z,14.00
2023-05-03T14:26:42.242Z,14.00
2023-05-03T14:30:35.719Z,14.10
2023-05-03T14:33:37.453Z,14.00
2023-05-03T14:36:43.584Z,14.10
2023-05-03T14:39:45.512Z,14.10
2023-05-03T14:42:47.433Z,14.10
2023-05-03T14:45:49.243Z,14.10
2023-05-03T14:48:51.265Z,14.20
2023-05-03T14:51:53.216Z,14.10
2023-05-03T14:54:54.958Z,14.10
2023-05-03T14:57:56.649Z,14.20
2023-05-03T15:00:58.400Z,14.20
2023-05-03T15:04:00.259Z,14.20
2023-05-03T15:07:06.503Z,14.10
2023-05-03T15:10:08.970Z,14.10
2023-05-03T15:13:12.032Z,14.20
2023-05-03T15:16:14.123Z,14.10
2023-05-03T15:19:21.518Z,14.10
2023-05-03T15:22:56.625Z,14.10
2023-05-03T15:26:27.254Z,14.10
2023-05-03T15:29:32.102Z,14.00
2023-05-03T15:32:33.854Z,14.00
2023-05-03T15:35:40.247Z,14.00
2023-05-03T15:39:14.865Z,14.00
2023-05-03T15:42:16.540Z,14.00
2023-05-03T15:50:08.518Z,13.90
2023-05-03T15:53:12.743Z,13.80
2023-05-03T15:56:14.632Z,13.90
2023-05-03T15:59:48.507Z,13.90
2023-05-03T16:02:50.262Z,13.90
2023-05-03T16:05:52.075Z,13.90
2023-05-03T16:13:09.673Z,13.90
2023-05-03T16:16:11.865Z,13.80
2023-05-03T16:19:13.598Z,13.70
2023-05-03T16:23:05.132Z,13.70
2023-05-03T16:26:17.869Z,13.60
2023-05-03T16:33:47.915Z,13.60
2023-05-03T16:37:08.702Z,13.40
2023-05-03T16:40:11.505Z,13.40
2023-05-03T16:43:15.528Z,13.40
2023-05-03T16:46:17.474Z,13.40
2023-05-03T16:49:42.432Z,13.30
2023-05-03T16:52:44.704Z,13.30
2023-05-03T16:55:47.042Z,13.30
2023-05-03T16:58:48.723Z,13.30
2023-05-03T17:01:50.820Z,13.30
2023-05-03T17:05:19.700Z,13.40
2023-05-03T17:08:51.695Z,13.40
2023-05-03T17:11:53.609Z,13.40
2023-05-03T17:14:55.597Z,13.30
2023-05-03T17:17:57.407Z,13.30
2023-05-03T17:21:59.236Z,13.40
2023-05-03T17:30:07.347Z,13.50
2023-05-03T17:33:49.634Z,13.30
2023-05-03T17:36:51.551Z,13.30
2023-05-03T17:39:53.330Z,13.30
2023-05-03T17:43:06.913Z,13.20
2023-05-03T17:46:14.337Z,13.20
2023-05-03T17:49:36.416Z,13.20
2023-05-03T17:52:38.189Z,13.20
2023-05-03T17:55:54.429Z,13.10
2023-05-03T17:58:56.286Z,13.10
2023-05-03T18:02:21.653Z,13.10
2023-05-03T18:06:00.693Z,13.00
2023-05-03T18:09:26.723Z,13.00
2023-05-03T18:12:28.808Z,13.00
2023-05-03T18:15:31.158Z,13.00
2023-05-03T18:19:22.289Z,12.90
2023-05-03T18:26:39.866Z,12.70
2023-05-03T18:29:41.504Z,12.60
2023-05-03T18:32:43.299Z,12.50
2023-05-03T18:35:49.648Z,12.40
2023-05-03T18:39:25.299Z,12.30
2023-05-03T18:42:27.236Z,12.20
2023-05-03T18:45:40.015Z,12.10
2023-05-03T18:48:43.162Z,12.00
2023-05-03T18:51:51.101Z,12.00
2023-05-03T18:55:25.635Z,11.90
2023-05-03T18:59:18.428Z,11.90
2023-05-03T19:02:20.200Z,11.80
2023-05-03T19:06:00.713Z,11.70
2023-05-03T19:09:04.478Z,11.60
2023-05-03T19:12:08.352Z,11.60
2023-05-03T19:15:10.969Z,11.50
2023-05-03T19:18:45.405Z,11.50
2023-05-03T19:21:53.239Z,11.40
2023-05-03T19:24:54.920Z,11.50
2023-05-03T19:28:48.496Z,11.40
2023-05-03T19:31:50.291Z,11.40
2023-05-03T19:39:14.086Z,11.30
2023-05-03T19:42:28.037Z,11.20
2023-05-03T19:46:02.885Z,11.20
2023-05-03T19:53:27.198Z,11.10
2023-05-03T20:00:51.686Z,11.10
2023-05-03T20:03:54.898Z,10.90
2023-05-03T20:06:57.244Z,10.90
2023-05-03T20:10:20.591Z,10.80
2023-05-03T20:13:22.716Z,10.70
2023-05-03T20:16:27.213Z,10.60
2023-05-03T20:19:52.217Z,10.50
2023-05-03T20:22:54.035Z,10.50
2023-05-03T20:25:58.794Z,10.40
2023-05-03T20:29:00.780Z,10.30
2023-05-03T20:32:08.777Z,10.30
2023-05-03T20:35:21.688Z,10.10
2023-05-03T20:38:30.498Z,10.10
2023-05-03T20:41:48.703Z,10.10
2023-05-03T20:44:51.906Z,10.00
2023-05-03T20:48:32.065Z,10.00
2023-05-03T20:51:40.029Z,10.00
2023-05-03T20:54:44.411Z,9.90
2023-05-03T20:57:46.900Z,9.90
2023-05-03T21:05:28.797Z,9.90
2023-05-03T21:08:30.504Z,9.80
2023-05-03T21:11:32.191Z,9.80
2023-05-03T21:19:32.491Z,9.70
2023-05-03T21:23:19.929Z,9.50
2023-05-03T21:26:35.401Z,9.60
2023-05-03T21:29:39.172Z,9.60
2023-05-03T21:32:40.910Z,9.50
2023-05-03T21:40:07.536Z,9.20
2023-05-03T21:43:13.693Z,9.20
2023-05-03T21:46:15.711Z,9.10
2023-05-03T21:49:17.423Z,9.10
2023-05-03T21:52:22.494Z,9.10
2023-05-03T21:59:46.701Z,8.90
2023-05-03T22:02:49.751Z,8.90
2023-05-03T22:05:51.983Z,8.80
2023-05-03T22:08:53.702Z,8.70
2023-05-03T22:11:55.478Z,8.70
2023-05-03T22:14:57.367Z,8.70
2023-05-03T22:17:59.050Z,8.70
2023-05-03T22:21:04.569Z,8.60
2023-05-03T22:24:07.432Z,8.60
2023-05-03T22:27:09.071Z,8.60
2023-05-03T22:30:11.157Z,8.50
2023-05-03T22:33:13.345Z,8.50
2023-05-03T22:36:15.457Z,8.40
2023-05-03T22:39:17.368Z,8.40
2023-05-03T22:42:19.063Z,8.40
2023-05-03T22:45:20.769Z,8.30
2023-05-03T22:53:06.409Z,8.20
2023-05-03T22:56:08.287Z,8.20
2023-05-03T22:59:10.413Z,8.20
2023-05-03T23:02:12.080Z,8.20
2023-05-03T23:05:13.740Z,8.10
2023-05-03T23:08:15.810Z,8.10
2023-05-03T23:11:17.687Z,8.00
2023-05-03T23:14:19.377Z,8.00
2023-05-03T23:17:21.080Z,8.00
2023-05-03T23:20:22.812Z,7.90
2023-05-03T23:23:24.887Z,7.80
2023-05-03T23:26:27.963Z,7.90
2023-05-03T23:29:30.459Z,7.80
2023-05-03T23:32:32.241Z,7.80
2023-05-03T23:35:34.087Z,7.70
2023-05-03T23:38:36.000Z,7.80
2023-05-03T23:41:37.700Z,7.80
2023-05-03T23:44:53.852Z,7.80
2023-05-03T23:47:56.819Z,7.70
2023-05-03T23:50:58.592Z,7.70
2023-05-03T23:54:00.310Z,7.70
2023-05-03T23:57:02.012Z,7.60
